Time;durP1;ratioP1;P1;durP2;ratioP2;P2;SDS_P1;SDS_P2;PMS_P1;PMS_P2;Temp;Humidity;BMP_temperature;BMP_pressure;BME280_temperature;BME280_humidity;BME280_pressure;Samples;Min_cycle;Max_cycle;Signal;HPM_P1;HPM_P2
2021/12/05 00:22:03;;;;;;;;;0.00;0.00;;;;;7.15;69.00;100088.38;5022647;28;45303;-52
2021/12/05 00:24:35;;;;;;;;;0.00;0.00;;;;;7.15;68.71;100078.75;5022891;28;45420;-53
2021/12/05 00:27:09;;;;;;;;;1.00;0.00;;;;;7.16;69.02;100080.44;5022612;28;46187;-53
2021/12/05 00:30:32;;;;;;;;;0.00;0.00;;;;;7.16;68.43;100071.75;5022283;28;45239;-53
2021/12/05 00:32:47;;;;;;;;;0.00;0.00;;;;;7.11;68.58;100073.75;5019424;28;45525;-53
2021/12/05 00:43:42;;;;;;;;;0.00;0.00;;;;;6.95;68.96;100073.75;5022524;28;45382;-52
2021/12/05 00:55:03;;;;;;;;;0.00;0.00;;;;;6.85;69.18;100062.13;5021975;28;45616;-54
2021/12/05 01:16:30;;;;;;;;;0.00;0.00;;;;;6.97;69.57;100054.44;5021748;28;45216;-53
2021/12/05 01:18:56;;;;;;;;;0.00;0.00;;;;;6.98;69.20;100047.44;5022054;28;45382;-52
2021/12/05 01:21:24;;;;;;;;;1.00;0.00;;;;;6.98;68.99;100034.34;5021537;28;45405;-53
2021/12/05 01:24:02;;;;;;;;;0.00;0.00;;;;;6.94;69.34;100036.25;5021751;28;45426;-51
2021/12/05 01:26:37;;;;;;;;;1.00;0.00;;;;;6.94;69.51;100040.66;5021980;28;45224;-50
2021/12/05 01:39:33;;;;;;;;;0.00;0.00;;;;;6.86;69.39;100030.59;5021773;28;45406;-52
2021/12/05 02:09:53;;;;;;;;;0.00;0.00;;;;;6.56;69.62;100011.38;5021300;28;45284;-49
2021/12/05 02:34:50;;;;;;;;;0.00;0.00;;;;;6.35;70.13;100031.69;5020876;28;45297;-53
2021/12/05 02:40:23;;;;;;;;;1.00;0.00;;;;;6.36;70.53;100026.34;5020781;28;45323;-52
2021/12/05 02:43:10;;;;;;;;;2.00;0.00;;;;;6.37;70.13;100014.97;5020784;28;45295;-48
2021/12/05 02:45:39;;;;;;;;;0.00;0.00;;;;;6.37;69.82;100004.50;5016615;28;45790;-51
2021/12/05 02:48:07;;;;;;;;;1.25;0.00;;;;;6.37;69.98;99994.03;5020302;28;45474;-49
2021/12/05 02:50:35;;;;;;;;;0.00;0.00;;;;;6.35;69.88;99988.06;5020458;28;45319;-53
2021/12/05 02:53:12;;;;;;;;;0.00;0.00;;;;;6.35;70.13;99976.75;5019982;28;45396;-53
2021/12/05 02:55:41;;;;;;;;;0.00;0.00;;;;;6.33;69.94;99978.59;5020017;28;45493;-52
2021/12/05 02:58:22;;;;;;;;;0.25;0.00;;;;;6.30;70.42;99982.22;5020599;28;45383;-51
2021/12/05 03:01:06;;;;;;;;;0.00;0.00;;;;;6.30;70.29;99982.22;5020406;28;45371;-53
2021/12/05 03:03:33;;;;;;;;;2.00;0.00;;;;;6.28;70.19;99980.63;5020052;28;45302;-51
2021/12/05 03:06:09;;;;;;;;;0.00;0.00;;;;;6.28;69.83;99991.06;5020311;28;45447;-51
2021/12/05 03:08:34;;;;;;;;;0.00;0.00;;;;;6.28;70.92;99984.06;5020230;28;45463;-52
2021/12/05 03:11:01;;;;;;;;;1.00;0.00;;;;;6.28;70.52;99986.69;5020682;28;45364;-51
2021/12/05 03:13:27;;;;;;;;;1.00;0.00;;;;;6.28;70.21;99980.63;5023220;28;45209;-52
2021/12/05 03:15:56;;;;;;;;;0.00;0.00;;;;;6.25;70.27;99973.78;5023723;28;45303;-52
2021/12/05 03:18:23;;;;;;;;;0.00;0.00;;;;;6.25;70.90;99973.78;5023622;28;46208;-52
2021/12/05 03:20:49;;;;;;;;;1.00;0.00;;;;;6.25;70.47;99979.03;5023758;28;45462;-50
2021/12/05 03:23:15;;;;;;;;;2.00;0.00;;;;;6.24;70.86;99986.91;5023749;28;45370;-51
2021/12/05 03:25:40;;;;;;;;;2.00;0.00;;;;;6.21;70.20;99981.88;5023684;28;45445;-48
2021/12/05 03:28:06;;;;;;;;;0.25;0.00;;;;;6.23;70.30;99973.00;5023449;28;45436;-48
2021/12/05 03:30:32;;;;;;;;;0.00;0.00;;;;;6.23;70.75;99964.31;5023610;28;45392;-51
2021/12/05 03:32:58;;;;;;;;;1.25;0.00;;;;;6.22;70.26;99979.16;5023638;28;45287;-50
2021/12/05 03:35:28;;;;;;;;;1.00;0.00;;;;;6.20;70.53;99977.56;5023524;28;45304;-53
2021/12/05 03:37:57;;;;;;;;;0.00;0.00;;;;;6.19;69.94;99974.09;5023355;28;45391;-51
2021/12/05 03:40:25;;;;;;;;;0.00;0.00;;;;;6.18;70.74;99964.56;5023511;28;45256;-52
2021/12/05 03:42:54;;;;;;;;;1.00;0.00;;;;;6.19;69.83;99968.88;5023509;28;45357;-52
2021/12/05 03:45:26;;;;;;;;;0.00;0.00;;;;;6.17;70.28;99968.13;5023169;28;45435;-53
2021/12/05 03:47:53;;;;;;;;;0.00;0.00;;;;;6.17;70.10;99965.50;5023117;28;45451;-54
2021/12/05 03:50:20;;;;;;;;;0.00;0.00;;;;;6.19;70.32;99965.41;5023338;28;45335;-50
2021/12/05 03:52:46;;;;;;;;;0.00;0.00;;;;;6.20;70.39;99954.88;5022750;28;45484;-52
2021/12/05 03:55:12;;;;;;;;;0.00;0.00;;;;;6.22;70.61;99960.00;5022962;28;45458;-51
2021/12/05 03:57:38;;;;;;;;;0.00;0.00;;;;;6.22;70.30;99957.41;5023230;28;46252;-53
2021/12/05 04:00:11;;;;;;;;;0.00;0.00;;;;;6.23;69.76;99959.09;5022974;28;45248;-52
2021/12/05 04:02:36;;;;;;;;;0.00;0.00;;;;;6.23;70.37;99954.69;5023370;28;45294;-52
2021/12/05 04:05:03;;;;;;;;;0.00;0.00;;;;;6.23;69.99;99951.25;5023036;28;45303;-51
2021/12/05 04:07:28;;;;;;;;;1.00;0.00;;;;;6.22;70.37;99953.00;5023044;28;46145;-53
2021/12/05 04:09:54;;;;;;;;;0.00;0.00;;;;;6.21;70.00;99948.72;5023088;28;45451;-53
2021/12/05 04:12:20;;;;;;;;;0.00;0.00;;;;;6.23;69.94;99943.38;5023243;28;45316;-51
2021/12/05 04:14:53;;;;;;;;;0.00;0.00;;;;;6.23;70.02;99938.16;5023024;28;45332;-51
2021/12/05 04:17:19;;;;;;;;;0.00;0.00;;;;;6.21;69.38;99950.47;5022468;28;46332;-53
2021/12/05 04:19:45;;;;;;;;;0.00;0.00;;;;;6.18;69.98;99953.28;5022604;28;45391;-50
2021/12/05 04:22:10;;;;;;;;;0.00;0.00;;;;;6.18;69.97;99950.66;5023105;28;45333;-52
2021/12/05 04:24:36;;;;;;;;;0.00;0.00;;;;;6.19;69.49;99954.97;5022274;28;45419;-54
2021/12/05 04:27:03;;;;;;;;;0.00;0.00;;;;;6.20;69.31;99959.25;5022590;28;45375;-52
2021/12/05 04:29:29;;;;;;;;;1.00;0.00;;;;;6.22;69.82;99960.00;5022391;28;45320;-50
2021/12/05 04:31:54;;;;;;;;;0.00;0.00;;;;;6.23;69.11;99951.25;5022882;28;45506;-49
2021/12/05 04:34:20;;;;;;;;;0.00;0.00;;;;;6.23;69.02;99952.09;5022626;28;45367;-52
2021/12/05 04:36:45;;;;;;;;;0.00;0.00;;;;;6.18;69.68;99951.50;5022467;28;46222;-52
2021/12/05 04:39:12;;;;;;;;;1.00;0.00;;;;;6.17;69.74;99935.91;5022470;28;45319;-53
2021/12/05 04:41:41;;;;;;;;;0.00;0.00;;;;;6.12;69.75;99926.53;5022744;28;45555;-54
2021/12/05 04:44:07;;;;;;;;;1.00;0.00;;;;;6.07;69.11;99935.53;5022610;28;45355;-49
2021/12/05 04:46:33;;;;;;;;;0.00;0.00;;;;;6.02;69.73;99927.94;5022012;28;46233;-49
2021/12/05 04:48:59;;;;;;;;;1.00;0.00;;;;;6.00;69.93;99937.63;5022243;28;45343;-49
2021/12/05 04:51:30;;;;;;;;;0.00;0.00;;;;;6.00;69.52;99929.78;5022652;28;45393;-50
2021/12/05 04:53:56;;;;;;;;;0.00;0.00;;;;;6.01;69.48;99934.09;5020611;28;45474;-52
2021/12/05 04:56:23;;;;;;;;;0.00;0.00;;;;;5.99;70.16;99945.56;5021905;28;45264;-52
2021/12/05 04:58:48;;;;;;;;;0.00;0.00;;;;;5.96;69.80;99924.81;5022237;28;45335;-53
2021/12/05 05:01:14;;;;;;;;;0.50;0.00;;;;;5.96;69.62;99930.03;5022347;28;45323;-53
2021/12/05 05:03:40;;;;;;;;;0.00;0.00;;;;;5.96;70.02;99927.44;5021977;28;45631;-52
2021/12/05 05:06:15;;;;;;;;;0.50;0.00;;;;;5.97;69.39;99916.88;5021885;28;46297;-51
2021/12/05 05:08:42;;;;;;;;;0.00;0.00;;;;;5.97;69.62;99923.88;5022092;28;45298;-51
2021/12/05 05:11:12;;;;;;;;;0.00;0.00;;;;;5.96;69.30;99924.81;5022428;28;45455;-50
2021/12/05 05:13:38;;;;;;;;;0.00;0.00;;;;;5.95;70.43;99929.19;5022039;28;45539;-51
2021/12/05 05:16:06;;;;;;;;;0.75;0.00;;;;;5.96;70.31;99925.66;5021389;28;45825;-53
2021/12/05 05:18:43;;;;;;;;;0.00;0.00;;;;;5.98;69.62;99925.56;5021800;28;45282;-49
2021/12/05 05:21:30;;;;;;;;;0.75;0.00;;;;;6.01;69.83;99920.19;5021949;28;45431;-54
2021/12/05 05:40:23;;;;;;;;;0.00;0.00;;;;;6.21;69.97;99932.19;5021843;28;45437;-54
2021/12/05 05:48:32;;;;;;;;;0.00;0.00;;;;;6.34;69.66;99922.75;5021090;28;45432;-51
2021/12/05 05:50:59;;;;;;;;;0.00;0.00;;;;;6.35;70.07;99924.44;5021387;28;45395;-51
2021/12/05 05:53:24;;;;;;;;;0.00;0.00;;;;;6.38;69.87;99919.88;5020991;28;45406;-51
2021/12/05 05:55:52;;;;;;;;;0.00;0.00;;;;;6.43;70.23;99922.25;5021344;28;45249;-51
2021/12/05 05:58:20;;;;;;;;;0.00;0.00;;;;;6.42;69.94;99929.25;5021212;28;45348;-54
2021/12/05 06:01:02;;;;;;;;;1.00;0.00;;;;;6.41;69.92;99916.25;5021153;28;45272;-50
2021/12/05 06:03:28;;;;;;;;;0.00;0.00;;;;;6.41;70.23;99906.63;5021329;28;46216;-51
2021/12/05 06:06:01;;;;;;;;;1.00;0.00;;;;;6.41;70.06;99916.25;5021501;28;45232;-54
2021/12/05 06:08:29;;;;;;;;;0.00;0.00;;;;;6.42;69.92;99913.56;5020977;28;46986;-53
2021/12/05 06:10:58;;;;;;;;;0.00;0.00;;;;;6.44;70.48;99908.22;5021508;28;45454;-53
2021/12/05 06:13:25;;;;;;;;;0.00;0.00;;;;;6.45;70.65;99896.81;5019923;28;45260;-53
2021/12/05 06:15:51;;;;;;;;;0.00;0.00;;;;;6.46;70.21;99905.53;5020833;28;45458;-50
2021/12/05 06:18:17;;;;;;;;;0.00;0.00;;;;;6.47;70.19;99901.97;5020806;28;45339;-50
2021/12/05 06:20:44;;;;;;;;;0.00;0.00;;;;;6.47;69.89;99905.44;5021999;28;45447;-50
2021/12/05 06:23:11;;;;;;;;;2.00;0.00;;;;;6.49;70.07;99902.75;5018087;28;45425;-49
2021/12/05 06:25:39;;;;;;;;;0.00;0.00;;;;;6.51;70.35;99908.72;5021188;28;45418;-50
2021/12/05 06:28:11;;;;;;;;;0.00;0.00;;;;;6.52;69.84;99913.03;5020615;28;46109;-50
2021/12/05 06:39:16;;;;;;;;;0.00;0.00;;;;;6.57;69.76;99909.25;5020623;28;45248;-50
2021/12/05 06:46:56;;;;;;;;;0.00;0.00;;;;;6.60;70.11;99911.66;5020457;28;45332;-49
2021/12/05 06:49:21;;;;;;;;;0.00;0.00;;;;;6.62;70.30;99906.34;5020268;28;45398;-49
2021/12/05 06:51:47;;;;;;;;;1.00;0.00;;;;;6.66;69.59;99920.97;5020662;28;45415;-51
2021/12/05 06:54:12;;;;;;;;;1.75;0.00;;;;;6.70;69.86;99928.53;5020021;28;45346;-55
2021/12/05 06:56:38;;;;;;;;;0.00;0.00;;;;;6.71;69.23;99938.09;5020594;28;45490;-54
2021/12/05 06:59:04;;;;;;;;;1.00;0.00;;;;;6.68;70.09;99926.94;5020025;28;45392;-51
2021/12/05 07:01:30;;;;;;;;;1.50;0.00;;;;;6.72;70.60;99938.94;5020503;28;45424;-52
2021/12/05 07:04:00;;;;;;;;;0.00;0.00;;;;;6.72;70.16;99937.16;5020223;28;45388;-51
2021/12/05 07:06:28;;;;;;;;;2.00;0.00;;;;;6.69;70.17;99931.25;5020640;28;45493;-54
2021/12/05 07:09:00;;;;;;;;;2.50;0.25;;;;;6.65;70.29;99921.91;5020065;28;45459;-52
2021/12/05 07:16:54;;;;;;;;;0.00;0.00;;;;;6.57;71.10;99935.41;5035590;28;45330;-52
2021/12/05 07:19:41;;;;;;;;;1.00;0.00;;;;;6.56;70.94;99938.97;5020095;28;45296;-52
2021/12/05 07:22:18;;;;;;;;;0.00;0.00;;;;;6.54;70.72;99932.94;5020312;28;45541;-50
2021/12/05 07:24:49;;;;;;;;;0.00;0.00;;;;;6.50;71.42;99944.53;5020397;28;45402;-51
2021/12/05 07:41:39;;;;;;;;;1.00;0.00;;;;;6.40;72.45;99941.56;5019746;28;45863;-49
2021/12/05 07:44:05;;;;;;;;;0.50;0.00;;;;;6.41;71.92;99926.72;5019731;28;45301;-49
2021/12/05 07:46:31;;;;;;;;;0.00;0.00;;;;;6.40;72.23;99938.97;5020244;28;45277;-52
2021/12/05 07:48:56;;;;;;;;;0.00;0.00;;;;;6.41;71.43;99934.56;5019839;28;45535;-49
2021/12/05 07:51:26;;;;;;;;;0.75;0.00;;;;;6.44;72.22;99930.00;5020010;28;45381;-51
2021/12/05 07:54:09;;;;;;;;;0.00;0.00;;;;;6.47;71.81;99942.06;5019418;28;45375;-53
2021/12/05 07:56:41;;;;;;;;;0.00;0.00;;;;;6.50;72.18;99943.69;5019895;28;45350;-54
2021/12/05 07:59:23;;;;;;;;;0.00;0.00;;;;;6.49;71.58;99935.00;5020353;28;45465;-50
2021/12/05 08:15:40;;;;;;;;;0.00;0.00;;;;;6.61;72.41;99934.28;5022547;28;45237;-50
2021/12/05 08:18:05;;;;;;;;;0.50;0.50;;;;;6.66;72.57;99934.88;5022833;28;45300;-50
2021/12/05 08:20:35;;;;;;;;;0.25;0.25;;;;;6.66;72.49;99931.44;5022951;28;45437;-53
2021/12/05 08:23:02;;;;;;;;;0.25;0.00;;;;;6.66;72.50;99931.44;5022724;28;45954;-50
2021/12/05 08:25:30;;;;;;;;;0.00;0.00;;;;;6.62;72.75;99935.97;5022861;28;45252;-49
2021/12/05 08:28:12;;;;;;;;;3.00;0.00;;;;;6.62;72.46;99942.97;5022834;28;45317;-49
2021/12/05 08:30:38;;;;;;;;;0.00;0.00;;;;;6.66;72.94;99947.97;5022457;28;45431;-49
2021/12/05 10:07:48;;;;;;;;;1.00;1.00;;;;;7.99;70.87;99999.66;5021470;28;46036;-54
2021/12/05 10:12:57;;;;;;;;;3.25;1.00;;;;;7.97;71.04;100004.13;5021181;28;45261;-52
2021/12/05 10:15:37;;;;;;;;;2.00;1.00;;;;;7.99;70.58;100010.16;5021067;28;45326;-54
2021/12/05 10:38:12;;;;;;;;;1.00;0.00;;;;;8.28;70.88;99996.06;5020840;28;45299;-54
2021/12/05 10:40:47;;;;;;;;;2.25;1.00;;;;;8.27;70.70;99991.75;5020633;28;45482;-51
2021/12/05 10:43:14;;;;;;;;;3.00;1.75;;;;;8.31;70.96;99990.66;5020461;28;46226;-49
2021/12/05 10:45:47;;;;;;;;;2.00;2.00;;;;;8.34;70.90;99990.47;5020290;28;45454;-51
2021/12/05 10:48:47;;;;;;;;;5.50;3.00;;;;;8.36;70.70;99988.59;5020397;28;45407;-51
2021/12/05 10:51:23;;;;;;;;;1.50;1.00;;;;;8.37;70.59;99982.44;5023904;28;45211;-50
2021/12/05 10:53:53;;;;;;;;;1.00;1.00;;;;;8.33;70.20;99986.16;5019359;28;45951;-50
2021/12/05 10:56:26;;;;;;;;;2.50;1.00;;;;;8.28;69.98;99977.72;5020413;28;45415;-51
2021/12/05 10:59:16;;;;;;;;;0.00;0.00;;;;;8.26;70.59;99979.59;5020558;28;45348;-54
2021/12/05 11:01:55;;;;;;;;;1.00;1.00;;;;;8.30;70.28;99977.63;5020531;28;45467;-52
2021/12/05 11:04:32;;;;;;;;;2.50;1.00;;;;;8.33;70.37;99977.44;5020461;28;46216;-53
2021/12/05 11:07:06;;;;;;;;;1.00;1.00;;;;;8.34;70.51;99976.50;5020351;28;45367;-53
2021/12/05 11:09:40;;;;;;;;;3.00;1.00;;;;;8.30;70.46;99977.63;5020711;28;45379;-54
2021/12/05 11:12:11;;;;;;;;;1.75;1.75;;;;;8.28;70.41;99975.09;5020186;28;45420;-52
2021/12/05 11:14:41;;;;;;;;;2.00;1.25;;;;;8.26;70.37;99978.75;5020129;28;45316;-53
2021/12/05 11:17:10;;;;;;;;;1.00;1.00;;;;;8.22;70.70;99972.03;5020122;28;45318;-52
2021/12/05 11:19:47;;;;;;;;;1.00;1.00;;;;;8.21;70.63;99973.78;5017085;28;45363;-53
2021/12/05 11:22:26;;;;;;;;;2.00;1.00;;;;;8.18;71.01;99983.63;5020296;28;45486;-50
2021/12/05 11:24:55;;;;;;;;;1.00;1.00;;;;;8.12;70.79;99985.69;5020199;28;45625;-53
2021/12/05 11:27:28;;;;;;;;;1.00;1.00;;;;;8.11;71.02;99989.25;5020239;28;45469;-52
2021/12/05 11:30:09;;;;;;;;;2.00;1.00;;;;;8.07;71.20;99979.03;5020055;28;45350;-50
2021/12/05 11:32:47;;;;;;;;;2.00;1.75;;;;;8.04;71.62;99984.47;5020087;28;45510;-53
2021/12/05 11:35:20;;;;;;;;;2.00;2.00;;;;;8.01;71.76;99987.28;5023432;28;46075;-55
2021/12/05 11:37:50;;;;;;;;;1.75;1.50;;;;;7.97;71.89;100002.34;5023473;28;45336;-54
2021/12/05 11:40:15;;;;;;;;;3.00;2.00;;;;;7.95;72.35;99996.34;5023719;28;45269;-51
2021/12/05 11:42:52;;;;;;;;;1.00;1.00;;;;;7.94;72.31;100002.53;5023289;28;45377;-51
2021/12/05 11:45:17;;;;;;;;;1.00;1.00;;;;;7.89;71.75;100001.13;5023188;28;45715;-51
2021/12/05 11:47:43;;;;;;;;;2.75;1.00;;;;;7.80;71.71;100007.75;5023081;28;45436;-51
2021/12/05 11:50:09;;;;;;;;;1.50;1.50;;;;;7.76;71.95;100014.97;5023604;28;45445;-52
2021/12/05 11:52:39;;;;;;;;;5.50;1.00;;;;;7.69;71.74;100008.41;5022664;28;45420;-52
2021/12/05 11:55:06;;;;;;;;;0.25;0.25;;;;;7.59;71.51;100007.28;5022904;28;45311;-53
2021/12/05 11:57:35;;;;;;;;;1.75;0.00;;;;;7.54;71.50;100018.00;5023052;28;45284;-51
2021/12/05 12:00:14;;;;;;;;;0.50;0.00;;;;;7.48;71.36;100020.13;5023077;28;45343;-50
2021/12/05 12:02:40;;;;;;;;;0.25;0.00;;;;;7.41;71.42;100022.25;5023239;28;45343;-51
2021/12/05 12:05:33;;;;;;;;;1.00;0.00;;;;;7.43;71.70;100016.97;5022749;28;45397;-49
2021/12/05 12:08:07;;;;;;;;;0.00;0.00;;;;;7.44;71.71;100023.88;5023304;28;45928;-53
2021/12/05 12:10:57;;;;;;;;;0.00;0.00;;;;;7.43;71.64;100020.41;5023416;28;45394;-52
2021/12/05 12:13:34;;;;;;;;;1.00;1.00;;;;;7.42;71.69;100023.94;5022975;28;46307;-53
2021/12/05 12:16:06;;;;;;;;;1.00;1.00;;;;;7.39;71.73;100018.88;5022533;28;45290;-51
2021/12/05 12:18:35;;;;;;;;;2.75;1.00;;;;;7.35;71.50;100021.78;5022778;28;45378;-48
2021/12/05 12:21:06;;;;;;;;;1.00;1.00;;;;;7.32;71.70;100017.56;5022977;28;45285;-49
2021/12/05 12:23:32;;;;;;;;;1.00;1.00;;;;;7.27;71.38;100030.94;5022669;28;45289;-50
2021/12/05 12:26:02;;;;;;;;;2.00;2.00;;;;;7.29;71.41;100038.69;5022734;28;45443;-52
2021/12/05 12:28:28;;;;;;;;;1.00;1.00;;;;;7.30;71.62;100031.69;5022995;28;45390;-51
2021/12/05 12:31:02;;;;;;;;;2.50;2.50;;;;;7.35;71.74;100027.88;5022511;28;45363;-53
2021/12/05 12:33:53;;;;;;;;;5.00;5.00;;;;;7.44;71.43;100029.13;5022409;28;45305;-53
2021/12/05 12:36:32;;;;;;;;;2.50;2.50;;;;;7.47;71.77;100034.16;5022457;28;45397;-53
2021/12/05 12:39:03;;;;;;;;;5.00;3.00;;;;;7.47;71.53;100035.00;5022711;28;45498;-53
2021/12/05 12:41:29;;;;;;;;;2.75;1.00;;;;;7.43;70.86;100041.38;5009496;28;45257;-48
2021/12/05 12:44:03;;;;;;;;;2.00;0.25;;;;;7.43;71.25;100051.03;5022482;28;45232;-49
2021/12/05 12:46:36;;;;;;;;;1.00;1.00;;;;;7.46;70.94;100042.97;5021998;28;46221;-48
2021/12/05 12:49:16;;;;;;;;;0.50;0.50;;;;;7.45;71.10;100052.59;5022023;28;45480;-49
2021/12/05 12:52:04;;;;;;;;;0.50;0.50;;;;;7.42;70.58;100039.66;5022452;28;45568;-50
2021/12/05 12:54:42;;;;;;;;;1.00;1.00;;;;;7.34;70.95;100052.34;5022056;28;45412;-51
2021/12/05 12:57:13;;;;;;;;;1.75;1.50;;;;;7.25;71.33;100053.72;5021932;28;45255;-51
2021/12/05 12:59:47;;;;;;;;;3.00;2.00;;;;;7.25;71.58;100053.72;5022129;28;45334;-53
2021/12/05 13:10:26;;;;;;;;;3.50;3.00;;;;;7.35;71.63;100051.44;5022172;28;45319;-53
2021/12/05 13:12:57;;;;;;;;;3.00;3.00;;;;;7.37;71.58;100054.81;5022451;28;45472;-54
2021/12/05 13:15:38;;;;;;;;;6.25;5.00;;;;;7.48;71.45;100056.81;5021675;28;45594;-52
2021/12/05 13:18:15;;;;;;;;;5.00;5.00;;;;;7.61;71.54;100068.28;5021654;28;45498;-52
2021/12/05 13:20:41;;;;;;;;;5.50;5.00;;;;;7.71;71.31;100065.97;5021972;28;45422;-51
2021/12/05 13:23:13;;;;;;;;;3.50;2.00;;;;;7.75;71.30;100065.72;5022071;28;45864;-54
2021/12/05 13:26:26;;;;;;;;;6.25;2.50;;;;;7.80;71.03;100068.91;5021531;28;45390;-53
2021/12/05 13:29:15;;;;;;;;;1.75;1.75;;;;;7.92;71.58;100067.34;5025027;28;46692;-54
2021/12/05 13:31:45;;;;;;;;;4.00;3.00;;;;;8.03;70.99;100062.31;5021618;28;45378;-51
2021/12/05 13:34:19;;;;;;;;;5.00;2.00;;;;;8.09;71.13;100072.44;5021691;28;45268;-50
2021/12/05 13:36:52;;;;;;;;;1.00;1.00;;;;;8.10;70.49;100076.75;5021729;28;45616;-52
2021/12/05 13:39:35;;;;;;;;;4.25;2.00;;;;;8.02;70.59;100076.34;5021660;28;46104;-53
2021/12/05 13:42:09;;;;;;;;;2.50;2.50;;;;;7.93;70.66;100076.06;5021704;28;45346;-52
2021/12/05 13:44:56;;;;;;;;;3.00;1.25;;;;;7.86;70.72;100067.72;5021344;28;45694;-52
2021/12/05 13:47:29;;;;;;;;;7.75;2.50;;;;;7.82;70.85;100072.31;5021591;28;45280;-53
2021/12/05 13:49:56;;;;;;;;;6.75;2.00;;;;;7.90;70.94;100074.47;5021364;28;45414;-52
2021/12/05 13:52:35;;;;;;;;;2.00;1.00;;;;;7.98;71.36;100087.09;5020959;28;45332;-51
2021/12/05 13:55:36;;;;;;;;;3.50;3.00;;;;;8.08;71.58;100093.53;5021275;28;45243;-53
2021/12/05 13:58:21;;;;;;;;;1.50;1.50;;;;;8.09;71.13;100096.03;5009988;28;45518;-50
2021/12/05 14:01:06;;;;;;;;;1.00;1.00;;;;;8.05;70.88;100099.78;5021141;28;46145;-53
2021/12/05 14:03:56;;;;;;;;;2.00;2.00;;;;;8.04;71.58;100098.09;5021192;28;45466;-52
2021/12/05 14:06:32;;;;;;;;;2.00;2.00;;;;;8.16;71.54;100100.94;5021306;28;45340;-52
2021/12/05 14:09:32;;;;;;;;;2.00;2.00;;;;;8.24;71.54;100103.94;5021361;28;45460;-49
2021/12/05 14:12:06;;;;;;;;;2.75;2.75;;;;;8.26;71.29;100100.28;5021030;28;46272;-53
2021/12/05 14:14:42;;;;;;;;;2.00;2.00;;;;;8.31;71.02;100103.50;5021141;28;45244;-49
2021/12/05 14:17:22;;;;;;;;;2.00;2.00;;;;;8.29;70.16;100100.09;5020679;28;45471;-52
2021/12/05 14:19:58;;;;;;;;;2.25;1.00;;;;;8.22;70.57;100095.34;5020870;28;45335;-52
2021/12/05 14:22:30;;;;;;;;;4.50;2.75;;;;;8.20;71.13;100107.69;5020907;28;46141;-52
2021/12/05 14:24:59;;;;;;;;;3.50;3.00;;;;;8.20;71.09;100110.28;5020716;28;45663;-50
2021/12/05 14:27:28;;;;;;;;;3.50;3.00;;;;;8.13;71.29;100113.28;5020888;28;45439;-50
2021/12/05 14:29:55;;;;;;;;;4.00;2.00;;;;;8.12;71.44;100116.00;5020736;28;45191;-52
2021/12/05 14:32:25;;;;;;;;;3.00;2.50;;;;;8.18;71.53;100114.78;5020816;28;45335;-52
2021/12/05 14:34:54;;;;;;;;;5.00;5.00;;;;;8.22;71.62;100124.19;5020655;28;45311;-52
2021/12/05 14:37:22;;;;;;;;;4.75;3.25;;;;;8.23;71.73;100124.09;5020822;28;45315;-54
2021/12/05 14:39:59;;;;;;;;;7.00;6.00;;;;;8.25;71.66;100126.63;5020894;28;45621;-49
2021/12/05 14:42:27;;;;;;;;;6.00;3.00;;;;;8.27;71.40;100138.69;5020513;28;46161;-49
2021/12/05 14:45:00;;;;;;;;;2.50;2.50;;;;;8.30;71.80;100135.06;5017681;28;45270;-50
2021/12/05 14:47:28;;;;;;;;;5.75;2.75;;;;;8.26;71.31;100141.41;5020084;28;45415;-53
2021/12/05 14:50:00;;;;;;;;;6.00;5.25;;;;;8.24;71.77;100145.94;5020639;28;45273;-49
2021/12/05 14:52:32;;;;;;;;;3.50;3.50;;;;;8.21;71.51;100153.97;5019645;28;46050;-49
2021/12/05 14:54:59;;;;;;;;;4.25;3.00;;;;;8.16;71.46;100154.25;5020354;28;45360;-51
2021/12/05 14:57:31;;;;;;;;;1.75;1.75;;;;;8.13;71.84;100155.25;5020237;28;45519;-48
2021/12/05 15:00:23;;;;;;;;;2.00;2.00;;;;;8.10;71.98;100178.22;5020477;28;45178;-53
2021/12/05 15:02:51;;;;;;;;;2.00;2.00;;;;;8.12;71.60;100176.34;5020693;28;45281;-53
2021/12/05 15:05:18;;;;;;;;;4.00;3.50;;;;;8.10;71.50;100181.66;5035696;28;45294;-52
2021/12/05 15:07:45;;;;;;;;;2.00;1.00;;;;;8.13;72.01;100180.63;5020571;28;45469;-54
2021/12/05 15:10:19;;;;;;;;;2.00;2.00;;;;;8.16;71.99;100187.50;5024160;28;45267;-49
2021/12/05 15:12:45;;;;;;;;;1.00;1.00;;;;;8.13;71.98;100191.97;5024028;28;45334;-52
2021/12/05 15:15:12;;;;;;;;;2.00;2.00;;;;;8.13;72.37;100181.47;5023530;28;45369;-51
2021/12/05 15:17:40;;;;;;;;;1.75;1.75;;;;;8.16;72.69;100203.25;5023394;28;45248;-49
2021/12/05 15:20:10;;;;;;;;;7.00;3.00;;;;;8.17;72.51;100199.69;5023723;28;45371;-53
2021/12/05 15:22:37;;;;;;;;;2.50;2.00;;;;;8.14;72.62;100208.59;5023743;28;45473;-50
2021/12/05 15:25:13;;;;;;;;;6.00;2.50;;;;;8.13;72.71;100212.13;5023666;28;45422;-54
2021/12/05 15:27:41;;;;;;;;;5.25;5.25;;;;;8.14;73.03;100216.47;5022239;28;45318;-53
2021/12/05 15:30:12;;;;;;;;;2.00;2.00;;;;;8.11;72.89;100214.00;5023655;28;45418;-51
2021/12/05 15:32:38;;;;;;;;;5.75;4.25;;;;;8.06;72.82;100219.53;5023340;28;45380;-50
2021/12/05 15:35:08;;;;;;;;;4.00;2.50;;;;;8.02;73.16;100225.00;5023480;28;45224;-53
2021/12/05 15:37:34;;;;;;;;;6.00;3.50;;;;;7.99;73.16;100235.69;5023151;28;45357;-55
2021/12/05 15:40:02;;;;;;;;;3.25;3.25;;;;;7.99;73.09;100235.69;5023678;28;45312;-53
2021/12/05 15:42:32;;;;;;;;;6.25;5.00;;;;;8.00;73.31;100247.88;5023371;28;45369;-53
2021/12/05 15:45:01;;;;;;;;;12.50;8.50;;;;;8.00;73.03;100242.63;5023320;28;46055;-54
2021/12/05 15:47:32;;;;;;;;;19.75;13.00;;;;;7.99;72.82;100246.19;5023179;28;45375;-53
2021/12/05 15:50:08;;;;;;;;;8.00;4.50;;;;;7.93;72.76;100259.63;5003769;28;45343;-53
2021/12/05 15:52:37;;;;;;;;;4.00;4.00;;;;;7.88;72.87;100262.50;5002772;28;45359;-50
2021/12/05 15:55:11;;;;;;;;;5.00;3.00;;;;;7.86;72.99;100274.84;5003417;28;45429;-55
2021/12/05 15:57:40;;;;;;;;;5.00;5.00;;;;;7.81;72.84;100279.50;4990859;28;45341;-53
2021/12/05 16:00:14;;;;;;;;;4.50;3.00;;;;;7.81;72.97;100293.44;5003279;28;45238;-52
2021/12/05 16:02:41;;;;;;;;;5.00;4.50;;;;;7.82;72.90;100295.16;5003125;28;45303;-55
2021/12/05 16:05:18;;;;;;;;;6.00;3.00;;;;;7.85;72.87;100302.00;5003236;28;45570;-54
2021/12/05 16:07:44;;;;;;;;;7.00;6.00;;;;;7.85;72.97;100304.63;5003071;28;45474;-51
2021/12/05 16:10:19;;;;;;;;;10.75;6.00;;;;;7.88;73.15;100307.06;5003352;28;45392;-52
2021/12/05 16:12:47;;;;;;;;;6.00;6.00;;;;;7.89;72.87;100318.41;5003152;28;45448;-52
2021/12/05 16:15:15;;;;;;;;;9.75;6.25;;;;;7.90;73.22;100322.72;5002822;28;45408;-50
2021/12/05 16:17:41;;;;;;;;;9.25;6.25;;;;;7.94;73.05;100325.09;5002759;28;45834;-50
2021/12/05 16:20:08;;;;;;;;;5.00;4.00;;;;;7.95;72.92;100334.66;5002091;28;45420;-52
2021/12/05 16:22:58;;;;;;;;;6.75;6.50;;;;;7.96;72.89;100333.72;5003141;28;45384;-50
2021/12/05 16:25:25;;;;;;;;;10.50;6.50;;;;;7.96;72.61;100330.25;5003168;28;45326;-51
2021/12/05 16:28:01;;;;;;;;;7.25;5.50;;;;;7.97;72.72;100334.56;5001884;28;45207;-53
2021/12/05 16:30:33;;;;;;;;;6.00;5.00;;;;;7.98;72.44;100337.13;4996637;28;45945;-53
2021/12/05 16:33:03;;;;;;;;;6.00;6.00;;;;;7.99;72.84;100344.06;5017606;28;46801;-55
2021/12/05 16:35:35;;;;;;;;;6.00;5.00;;;;;8.02;72.46;100350.91;5005880;28;45358;-52
2021/12/05 16:38:24;;;;;;;;;6.00;5.25;;;;;8.03;72.35;100353.44;5004351;28;45480;-53
2021/12/05 16:40:52;;;;;;;;;12.50;6.50;;;;;8.01;72.18;100357.94;5011605;28;45711;-55
2021/12/05 16:43:17;;;;;;;;;8.00;5.75;;;;;7.99;72.30;100362.44;5012383;28;45367;-59
2021/12/05 16:45:43;;;;;;;;;6.50;4.50;;;;;7.97;72.43;100366.88;5008440;28;45383;-60
2021/12/05 16:48:11;;;;;;;;;5.75;5.00;;;;;7.96;72.37;100366.97;5013045;28;45324;-60
2021/12/05 16:50:37;;;;;;;;;7.00;7.00;;;;;7.95;72.14;100371.38;5027488;28;45529;-60
2021/12/05 16:53:04;;;;;;;;;8.50;5.00;;;;;7.95;72.60;100376.63;5026635;28;45929;-59
2021/12/05 16:55:30;;;;;;;;;5.25;5.25;;;;;7.96;72.45;100377.47;5031399;28;45330;-60
2021/12/05 16:58:14;;;;;;;;;5.50;5.50;;;;;7.98;72.53;100379.09;5028924;28;45284;-61
2021/12/05 17:00:50;;;;;;;;;8.50;5.25;;;;;8.01;72.50;100381.53;5026612;28;45250;-60
2021/12/05 17:03:20;;;;;;;;;6.75;6.75;;;;;8.03;72.44;100381.47;5029087;28;45599;-62
2021/12/05 17:05:48;;;;;;;;;6.50;6.00;;;;;8.06;72.54;100389.19;5029813;28;45173;-60
2021/12/05 17:08:24;;;;;;;;;9.25;7.75;;;;;8.07;72.44;100386.47;5025548;28;45481;-59
2021/12/05 17:11:01;;;;;;;;;6.75;6.75;;;;;8.07;72.65;100396.13;5029546;28;45512;-57
2021/12/05 17:13:34;;;;;;;;;5.50;5.50;;;;;8.06;72.37;100403.13;5027110;28;45421;-54